Time;durP1;ratioP1;P1;durP2;ratioP2;P2;SDS_P1;SDS_P2;PMS_P1;PMS_P2;Temp;Humidity;BMP_temperature;BMP_pressure;BME280_temperature;BME280_humidity;BME280_pressure;Samples;Min_cycle;Max_cycle;Signal;HPM_P1;HPM_P2
2024/03/15 00:00:38;;;;;;;14.13;11.15;;;15.90;99.90;;;16.30;87.04;100487.75;5061447;28;20653;-66
2024/03/15 00:03:07;;;;;;;15.98;11.25;;;16.00;99.90;;;16.35;87.01;100495.63;5060233;28;20130;-63
2024/03/15 00:05:35;;;;;;;17.38;11.20;;;16.00;99.90;;;16.34;86.97;100494.72;5043196;28;20498;-66
2024/03/15 00:08:04;;;;;;;17.98;11.90;;;16.00;99.90;;;16.41;86.99;100490.06;5043164;28;20062;-62
2024/03/15 00:10:33;;;;;;;17.60;11.38;;;16.00;99.90;;;16.33;87.17;100493.00;5059845;28;20054;-63
2024/03/15 00:13:03;;;;;;;16.90;11.50;;;16.00;99.90;;;16.31;87.29;100489.50;5060142;28;20051;-68
2024/03/15 00:15:32;;;;;;;14.70;10.88;;;16.00;99.90;;;16.32;87.24;100485.06;5060645;28;20454;-68
2024/03/15 00:18:01;;;;;;;14.35;11.25;;;16.00;99.90;;;16.24;87.58;100493.28;5043145;28;20100;-63
2024/03/15 00:20:29;;;;;;;12.85;9.98;;;15.90;99.90;;;16.24;87.52;100486.16;5059976;28;20047;-64
2024/03/15 00:22:58;;;;;;;19.23;11.13;;;15.90;99.90;;;16.24;87.54;100487.97;5076130;28;20105;-66
2024/03/15 00:25:26;;;;;;;19.48;11.45;;;15.90;99.90;;;16.25;87.43;100484.38;5059935;28;20123;-63
2024/03/15 00:27:55;;;;;;;14.65;10.75;;;15.90;99.90;;;16.14;87.92;100492.72;5043750;28;20047;-66
2024/03/15 00:30:24;;;;;;;12.82;10.80;;;15.80;99.90;;;16.12;87.97;100493.72;5047033;28;20626;-63
2024/03/15 00:32:52;;;;;;;13.32;10.73;;;15.80;99.90;;;16.22;87.92;100498.69;5064141;28;20043;-66
2024/03/15 00:35:21;;;;;;;14.10;10.65;;;15.80;99.90;;;16.17;87.90;100473.97;5064056;28;20050;-66
2024/03/15 00:37:50;;;;;;;14.13;11.40;;;15.80;99.90;;;16.12;87.99;100493.72;5063412;28;20101;-63
2024/03/15 00:40:18;;;;;;;15.82;11.25;;;15.80;99.90;;;16.04;88.32;100499.31;5063924;28;20055;-67
2024/03/15 00:42:47;;;;;;;14.18;10.95;;;15.70;99.90;;;16.05;88.48;100487.72;5063611;28;20096;-63
2024/03/15 00:45:15;;;;;;;14.98;11.48;;;15.70;99.90;;;15.99;88.76;100489.69;5046805;28;20484;-63
2024/03/15 00:47:44;;;;;;;12.60;10.75;;;15.60;99.90;;;16.01;88.88;100485.19;5063291;28;20165;-67
2024/03/15 00:50:13;;;;;;;15.13;10.70;;;15.60;99.90;;;15.98;89.04;100485.28;5047178;28;20468;-65
2024/03/15 00:52:42;;;;;;;16.67;11.50;;;15.60;99.90;;;16.00;89.02;100472.78;5063422;28;20491;-67
2024/03/15 00:55:11;;;;;;;16.65;10.82;;;15.70;99.90;;;16.08;89.10;100487.63;5063581;28;20118;-63
2024/03/15 00:57:39;;;;;;;15.20;11.48;;;15.70;99.90;;;16.07;89.33;100479.66;5063318;28;20484;-64
2024/03/15 01:00:10;;;;;;;14.98;11.15;;;15.70;99.90;;;16.05;89.71;100465.47;5063106;28;20079;-66
2024/03/15 01:02:38;;;;;;;14.30;11.18;;;15.70;99.90;;;16.06;90.03;100472.56;5063867;28;20434;-63
2024/03/15 01:05:07;;;;;;;14.48;11.15;;;15.70;99.90;;;16.07;89.97;100468.97;5046859;28;20063;-65
2024/03/15 01:07:36;;;;;;;14.43;11.00;;;15.70;99.90;;;16.10;89.92;100471.56;5063347;28;20503;-63
2024/03/15 01:10:05;;;;;;;13.27;10.82;;;15.70;99.90;;;16.07;90.11;100474.31;5046829;28;20060;-68
2024/03/15 01:12:34;;;;;;;14.60;11.52;;;15.70;99.90;;;15.99;90.06;100473.69;5063432;28;20046;-65
2024/03/15 01:15:03;;;;;;;15.73;11.43;;;15.70;99.90;;;16.01;90.51;100472.72;5063523;28;20047;-65
2024/03/15 01:17:32;;;;;;;14.50;11.73;;;15.60;99.90;;;16.02;90.81;100482.47;5063039;28;20046;-67
2024/03/15 01:20:00;;;;;;;15.15;11.32;;;15.60;99.90;;;16.03;90.68;100478.00;5063281;28;20048;-63
2024/03/15 01:22:29;;;;;;;15.05;10.98;;;15.60;99.90;;;15.98;91.08;100466.63;5062941;28;20044;-66
2024/03/15 01:24:58;;;;;;;14.48;10.63;;;15.60;99.90;;;15.97;91.55;100479.06;5063192;28;20092;-63
2024/03/15 01:27:26;;;;;;;14.30;11.10;;;15.60;99.90;;;15.89;92.61;100470.44;5062962;28;20052;-64
2024/03/15 01:29:55;;;;;;;13.82;11.18;;;15.60;99.90;;;15.89;93.25;100478.44;5062921;28;20135;-63
2024/03/15 01:32:24;;;;;;;17.73;11.20;;;15.50;99.90;;;15.69;94.55;100475.56;5062988;28;20135;-63
2024/03/15 01:34:53;;;;;;;14.52;10.73;;;15.40;99.90;;;15.63;95.45;100459.75;5062808;28;20051;-67
2024/03/15 01:37:21;;;;;;;13.32;10.50;;;15.30;99.90;;;15.55;95.88;100458.22;5062777;28;20043;-63
2024/03/15 01:39:50;;;;;;;12.80;10.07;;;15.20;99.90;;;15.66;96.29;100454.31;5062464;28;20044;-66
2024/03/15 01:42:19;;;;;;;15.38;10.88;;;15.30;99.90;;;15.57;96.52;100465.28;5062851;28;20120;-63
2024/03/15 01:44:51;;;;;;;12.88;10.00;;;15.30;99.90;;;15.59;97.24;100455.44;5045950;28;20056;-69
2024/03/15 01:47:20;;;;;;;15.30;10.38;;;15.20;99.90;;;15.62;97.68;100463.31;5046676;28;20135;-69
2024/03/15 01:49:49;;;;;;;13.88;10.00;;;15.30;99.90;;;15.60;98.27;100451.84;5062844;28;20068;-65
2024/03/15 01:52:18;;;;;;;12.82;9.90;;;15.20;99.90;;;15.64;98.70;100444.63;5062546;28;20097;-64
2024/03/15 01:54:46;;;;;;;12.95;10.30;;;15.20;99.90;;;15.64;98.81;100448.16;5062487;28;20130;-63
2024/03/15 01:57:15;;;;;;;13.05;10.07;;;15.30;99.90;;;15.60;99.27;100451.84;5062361;28;20063;-62
2024/03/15 01:59:44;;;;;;;14.45;10.15;;;15.20;99.90;;;15.56;99.63;100457.34;5062013;28;20052;-66
2024/03/15 02:02:13;;;;;;;13.98;10.52;;;15.20;99.90;;;15.49;99.70;100448.63;5045456;28;20112;-62
2024/03/15 02:05:20;;;;;;;15.18;10.88;;;15.20;99.90;;;15.55;100.00;100448.44;5351814;22;20239;31
2024/03/15 02:07:50;;;;;;;15.38;10.88;;;15.20;99.90;;;15.42;100.00;100449.75;4858731;29;20056;-72
2024/03/15 02:10:19;;;;;;;14.77;11.63;;;15.10;99.90;;;15.43;100.00;100453.31;4874299;29;20060;-72
2024/03/15 02:12:49;;;;;;;15.17;10.97;;;15.10;99.90;;;15.45;100.00;100451.47;4874174;29;20507;-71
2024/03/15 02:15:18;;;;;;;12.63;11.43;;;15.10;99.90;;;15.42;100.00;100449.75;4874306;29;20101;-71
2024/03/15 02:17:47;;;;;;;15.80;10.85;;;15.00;99.90;;;15.38;100.00;100445.41;4874217;29;20069;-71
2024/03/15 02:20:19;;;;;;;14.52;11.30;;;15.00;99.90;;;15.30;100.00;100448.31;4874397;29;20053;-71
2024/03/15 02:22:47;;;;;;;15.52;11.13;;;14.90;99.90;;;15.33;100.00;100450.88;4874422;29;20065;-71
2024/03/15 02:25:16;;;;;;;13.23;10.70;;;14.90;99.90;;;15.36;100.00;100458.78;4874211;29;20049;-72
2024/03/15 02:27:44;;;;;;;14.55;10.90;;;15.00;99.90;;;14.87;100.00;100364.38;4874350;29;20049;-71
2024/03/15 02:30:13;;;;;;;13.23;10.48;;;14.90;99.90;;;15.30;100.00;100456.31;4874399;29;20076;-71
2024/03/15 02:32:42;;;;;;;15.13;11.13;;;14.90;99.90;;;15.26;100.00;100445.78;4873892;29;20167;-72
2024/03/15 02:35:10;;;;;;;14.45;11.00;;;14.90;99.90;;;15.27;100.00;100443.06;4873999;29;20045;-72
2024/03/15 02:37:53;;;;;;;14.05;10.43;;;14.90;99.90;;;15.26;100.00;100457.31;4872393;29;20049;-72
2024/03/15 02:40:22;;;;;;;13.85;9.98;;;14.90;99.90;;;15.27;100.00;100452.88;4890101;29;20056;-72
2024/03/15 02:42:51;;;;;;;15.40;10.35;;;14.90;99.90;;;15.26;100.00;100452.00;4858867;29;20086;-72
2024/03/15 02:45:21;;;;;;;13.93;9.63;;;14.90;99.90;;;15.19;100.00;100437.06;4889835;29;20504;-71
2024/03/15 02:47:50;;;;;;;16.85;10.27;;;14.90;99.90;;;15.23;100.00;100444.06;4858861;29;20485;-72
2024/03/15 02:50:20;;;;;;;11.63;9.40;;;14.90;99.90;;;15.21;100.00;100447.72;4888991;29;20144;-72
2024/03/15 02:52:49;;;;;;;13.52;10.15;;;14.90;99.90;;;15.17;100.00;100441.63;4858279;29;20049;-72
2024/03/15 02:55:18;;;;;;;14.90;9.73;;;14.80;99.90;;;15.18;100.00;100445.13;4873740;29;20480;-72
2024/03/15 02:57:47;;;;;;;15.60;9.50;;;14.80;99.90;;;15.15;100.00;100442.56;4858623;29;20402;-72
2024/03/15 03:00:16;;;;;;;13.23;9.20;;;14.80;99.90;;;15.21;100.00;100442.38;4858330;29;20053;-72
2024/03/15 03:02:45;;;;;;;10.80;8.95;;;14.90;99.90;;;15.21;100.00;100453.03;4858556;29;20060;-71
2024/03/15 03:05:13;;;;;;;13.15;9.65;;;14.80;99.90;;;15.22;100.00;100450.34;4859200;29;20098;-71
2024/03/15 03:07:42;;;;;;;12.63;9.50;;;14.90;99.90;;;15.30;100.00;100455.44;4861651;29;20115;-72
2024/03/15 03:10:10;;;;;;;17.98;10.40;;;14.90;99.90;;;15.27;100.00;100448.38;4861945;29;20488;-72
2024/03/15 03:12:39;;;;;;;15.10;9.85;;;14.90;99.90;;;15.26;100.00;100452.00;4861620;29;20049;-72
2024/03/15 03:15:10;;;;;;;13.40;10.18;;;14.90;99.90;;;15.22;100.00;100453.00;4861466;29;20049;-72
2024/03/15 03:17:39;;;;;;;13.07;9.55;;;14.90;99.90;;;15.18;100.00;100456.66;4861964;29;20063;-72
2024/03/15 03:20:13;;;;;;;13.43;9.85;;;14.90;99.90;;;15.17;100.00;100454.06;4861354;29;20120;-72
2024/03/15 03:22:48;;;;;;;11.00;9.90;;;14.80;99.90;;;15.16;100.00;100453.16;4862666;29;20109;-72
2024/03/15 03:25:16;;;;;;;12.35;9.63;;;14.80;99.90;;;15.07;100.00;100453.44;4876995;29;20053;-72
2024/03/15 03:27:45;;;;;;;12.25;9.93;;;14.80;99.90;;;15.20;100.00;100461.94;4861119;29;20100;-72
2024/03/15 03:30:14;;;;;;;13.40;10.15;;;14.80;99.90;;;15.26;100.00;100451.09;4876850;29;20054;-72
2024/03/15 03:32:42;;;;;;;18.17;10.02;;;14.80;99.90;;;15.23;100.00;100452.06;4861287;29;20100;-72
2024/03/15 03:35:11;;;;;;;15.90;10.77;;;14.90;99.90;;;15.22;100.00;100449.44;4861115;29;20045;-72
2024/03/15 03:37:39;;;;;;;16.40;10.20;;;14.90;99.90;;;15.29;100.00;100457.22;4861175;29;20558;-72
2024/03/15 03:40:14;;;;;;;13.68;10.85;;;14.90;99.90;;;15.19;100.00;100449.56;4861112;29;20041;-72
2024/03/15 03:42:44;;;;;;;12.65;10.00;;;14.90;99.90;;;15.17;100.00;100459.38;4861551;29;20052;-72
2024/03/15 03:45:17;;;;;;;12.48;10.68;;;14.80;99.90;;;15.14;100.00;100447.00;4860550;29;20113;-72
2024/03/15 03:47:46;;;;;;;11.43;10.02;;;14.80;99.90;;;15.14;100.00;100457.66;4861348;29;20292;-72
2024/03/15 03:50:15;;;;;;;14.68;10.05;;;14.80;99.90;;;15.19;100.00;100457.53;4860377;29;20452;-72
2024/03/15 03:52:43;;;;;;;12.32;10.02;;;14.80;99.90;;;15.19;100.00;100449.56;4860129;29;20495;-72
2024/03/15 03:55:12;;;;;;;14.15;10.25;;;14.80;99.90;;;15.20;100.00;100459.28;4860456;29;20140;-72
2024/03/15 03:57:40;;;;;;;14.63;9.43;;;14.90;99.90;;;15.13;100.00;100458.59;4860361;29;20053;-72
2024/03/15 04:00:15;;;;;;;13.02;8.60;;;14.80;99.90;;;15.06;100.00;100458.84;4860754;29;20387;-72
2024/03/15 04:02:45;;;;;;;12.55;9.80;;;14.80;99.90;;;15.13;100.00;100452.41;4860253;29;20105;-72
2024/03/15 04:05:14;;;;;;;11.50;8.75;;;14.80;99.90;;;15.15;100.00;100463.88;4859870;29;20117;-71
2024/03/15 04:07:44;;;;;;;11.18;8.85;;;14.80;99.90;;;15.05;100.00;100465.06;4860298;29;20460;-71
2024/03/15 04:10:14;;;;;;;12.90;8.90;;;14.70;99.90;;;14.98;100.00;100464.34;4860329;29;20052;-72
2024/03/15 04:12:43;;;;;;;12.38;9.45;;;14.70;99.90;;;15.05;100.00;100459.72;4860179;29;20076;-72
2024/03/15 04:15:12;;;;;;;14.32;8.52;;;14.70;99.90;;;15.06;100.00;100475.66;4860028;29;20054;-72
2024/03/15 04:17:57;;;;;;;12.55;9.52;;;14.70;99.90;;;15.05;100.00;100467.72;4862477;29;20056;-72
2024/03/15 04:20:26;;;;;;;12.75;9.90;;;14.70;99.90;;;14.96;100.00;100455.53;4860000;29;20077;-71
2024/03/15 04:22:56;;;;;;;12.95;9.02;;;14.60;99.90;;;14.89;100.00;100464.63;4860006;29;20152;-72
2024/03/15 04:25:25;;;;;;;12.50;9.07;;;14.60;99.90;;;14.79;100.00;100462.28;4859929;29;20101;-72
2024/03/15 04:27:55;;;;;;;11.67;9.00;;;14.50;99.90;;;14.74;100.00;100464.19;4859921;29;20507;-72
2024/03/15 04:30:24;;;;;;;12.25;8.15;;;14.40;99.90;;;14.77;100.00;100469.44;4860350;29;20052;-72
2024/03/15 04:32:55;;;;;;;11.45;7.65;;;14.40;99.90;;;14.77;100.00;100464.97;4859828;29;20522;-72
2024/03/15 04:35:27;;;;;;;12.80;7.55;;;14.40;99.90;;;14.78;100.00;100473.84;4860256;29;20059;-72
2024/03/15 04:37:57;;;;;;;10.25;8.38;;;14.40;99.90;;;14.71;100.00;100462.47;4860544;29;20053;-72
2024/03/15 04:40:28;;;;;;;10.38;8.57;;;14.40;99.90;;;14.77;100.00;100478.28;4860072;29;20061;-72
2024/03/15 04:42:57;;;;;;;11.48;8.73;;;14.40;99.90;;;14.68;100.00;100470.56;4875690;29;20495;-72
2024/03/15 04:45:26;;;;;;;10.52;8.30;;;14.30;99.90;;;14.67;100.00;100465.28;4859838;29;20072;-72
2024/03/15 04:47:56;;;;;;;10.63;9.25;;;14.30;99.90;;;14.54;100.00;100456.75;4860006;29;20049;-72
2024/03/15 04:50:25;;;;;;;15.20;9.75;;;14.20;99.90;;;14.51;100.00;100462.16;4860343;29;20048;-72
2024/03/15 04:52:53;;;;;;;12.60;10.00;;;14.20;99.90;;;14.55;100.00;100450.53;4859950;29;20052;-72
2024/03/15 04:55:22;;;;;;;13.43;10.35;;;14.20;99.90;;;14.55;100.00;100446.97;4860279;29;20041;-72
2024/03/15 04:57:51;;;;;;;14.10;10.45;;;14.20;99.90;;;14.39;100.00;100462.47;4859717;29;20131;-72
2024/03/15 05:00:20;;;;;;;17.58;11.75;;;14.10;99.90;;;14.38;100.00;100458.09;4859775;29;20041;-71
2024/03/15 05:02:51;;;;;;;15.52;10.75;;;14.10;99.90;;;14.46;100.00;100464.94;4860094;29;20045;-72
2024/03/15 05:05:23;;;;;;;19.05;11.45;;;14.10;99.90;;;14.23;100.00;100458.44;4875261;29;20414;-71
2024/03/15 05:07:55;;;;;;;17.85;11.27;;;14.00;99.90;;;14.16;100.00;100447.09;4876028;29;20402;-72
2024/03/15 05:10:24;;;;;;;18.58;11.70;;;13.90;99.90;;;14.25;100.00;100460.16;4860299;29;20048;-72
2024/03/15 05:12:53;;;;;;;19.25;12.48;;;13.90;99.90;;;14.19;100.00;100459.41;4859569;29;20049;-72
2024/03/15 05:15:21;;;;;;;18.38;12.32;;;13.90;99.90;;;14.10;100.00;100446.38;4862130;29;20120;-72
2024/03/15 05:17:50;;;;;;;19.23;11.95;;;13.80;99.90;;;14.22;100.00;100464.69;4863020;29;20052;-72
2024/03/15 05:20:19;;;;;;;18.05;11.73;;;13.90;99.90;;;14.15;100.00;100463.94;4862966;29;20527;-71
2024/03/15 05:22:49;;;;;;;20.92;12.02;;;13.80;99.90;;;14.26;100.00;100463.69;4863149;29;20120;-72
2024/03/15 05:25:18;;;;;;;16.92;11.35;;;13.90;99.90;;;14.19;100.00;100462.06;4878661;29;20533;-72
2024/03/15 05:27:46;;;;;;;20.13;11.93;;;13.90;99.90;;;14.17;100.00;100469.22;4862557;29;20506;-72
2024/03/15 05:30:17;;;;;;;20.80;11.20;;;13.80;99.90;;;14.28;100.00;100465.44;4862739;29;20083;-72
2024/03/15 05:32:47;;;;;;;22.13;11.88;;;13.90;99.90;;;14.22;100.00;100457.59;4863204;29;20423;-72
2024/03/15 05:35:18;;;;;;;23.38;11.52;;;13.90;99.90;;;14.23;100.00;100469.06;4862778;29;20104;-72
2024/03/15 05:37:47;;;;;;;25.95;10.77;;;13.90;99.90;;;14.24;100.00;100460.19;4862817;29;20056;-72
2024/03/15 05:40:17;;;;;;;20.17;10.27;;;14.00;99.90;;;14.18;100.00;100463.00;4878121;29;20109;-72
2024/03/15 05:42:47;;;;;;;20.02;9.13;;;13.90;99.90;;;14.21;100.00;100465.56;4862723;29;20678;-72
2024/03/15 05:45:17;;;;;;;19.33;9.15;;;13.90;99.90;;;14.26;100.00;100467.22;4862825;29;20041;-72
2024/03/15 05:47:46;;;;;;;24.40;9.40;;;13.90;99.90;;;14.23;100.00;100458.44;4862458;29;20052;-72
2024/03/15 05:50:15;;;;;;;17.20;8.52;;;13.90;99.90;;;14.16;100.00;100454.19;4877955;29;20665;-72
2024/03/15 05:52:44;;;;;;;18.80;9.15;;;13.90;99.90;;;14.15;100.00;100460.44;4862234;29;20045;-72
2024/03/15 05:55:13;;;;;;;21.27;8.80;;;13.80;99.90;;;14.18;100.00;100455.03;4862369;29;20148;-72
2024/03/15 05:57:42;;;;;;;23.92;9.35;;;13.90;99.90;;;14.17;100.00;100464.78;4862106;29;20068;-72
2024/03/15 06:00:13;;;;;;;23.55;8.20;;;13.80;99.90;;;14.10;100.00;100457.00;4862133;29;20048;-71
2024/03/15 06:02:45;;;;;;;25.23;9.10;;;13.80;99.90;;;14.05;100.00;100464.25;4862616;29;20127;-72
2024/03/15 06:05:14;;;;;;;27.08;8.90;;;13.80;99.90;;;14.05;100.00;100465.09;4862188;29;20048;-72
2024/03/15 06:07:42;;;;;;;21.67;8.65;;;13.70;99.90;;;14.06;100.00;100466.84;4858346;29;20061;-72
2024/03/15 06:10:11;;;;;;;27.15;8.63;;;13.70;99.90;;;14.04;100.00;100460.69;4858459;29;20072;-72
2024/03/15 06:12:39;;;;;;;25.08;8.50;;;13.70;99.90;;;14.12;100.00;100472.03;4858381;29;20071;-71
2024/03/15 06:15:09;;;;;;;20.73;8.07;;;13.80;99.90;;;14.17;100.00;100463.91;4858456;29;20053;-71
2024/03/15 06:17:39;;;;;;;23.23;8.20;;;13.80;99.90;;;14.09;100.00;100457.94;4858353;29;20129;-71
2024/03/15 06:20:10;;;;;;;23.83;8.13;;;13.70;99.90;;;14.08;100.00;100477.44;4858574;29;20045;-71
2024/03/15 06:22:39;;;;;;;;;;;13.80;99.90;;;14.10;100.00;100488.91;4874575;29;20061;-72
2024/03/15 06:25:08;;;;;;;15.70;6.93;;;13.80;99.90;;;14.06;100.00;100464.19;4874002;29;19928;-70
2024/03/15 06:27:39;;;;;;;22.70;8.30;;;13.70;99.90;;;14.02;100.00;100462.53;4858174;29;20072;-70
2024/03/15 06:30:09;;;;;;;26.15;8.88;;;13.70;99.90;;;14.04;100.00;100473.13;4858543;29;20053;-70
2024/03/15 06:32:39;;;;;;;;;;;13.70;99.90;;;14.03;100.00;100477.53;4858718;29;20056;-71
2024/03/15 06:38:07;;;;;;;23.88;7.47;;;13.70;99.90;;;14.05;100.00;100469.56;4855375;29;20065;-71
2024/03/15 06:40:55;;;;;;;25.95;8.82;;;13.70;99.90;;;14.10;100.00;100479.16;4858497;29;20041;-71
2024/03/15 06:43:39;;;;;;;22.33;7.40;;;13.70;99.90;;;14.10;100.00;100481.81;4858423;29;20383;-71
2024/03/15 06:46:19;;;;;;;21.10;7.05;;;13.80;99.90;;;14.02;100.00;100485.56;4875813;29;20060;-71
2024/03/15 06:48:56;;;;;;;19.40;6.65;;;13.70;99.90;;;14.08;100.00;100488.97;4875457;29;20057;-71
2024/03/15 06:54:14;;;;;;;19.35;6.45;;;13.80;99.90;;;14.17;100.00;100496.69;4857965;29;20102;-72
2024/03/15 06:56:44;;;;;;;19.05;6.63;;;13.80;99.90;;;14.14;100.00;100486.16;4874003;29;20045;-73
2024/03/15 06:59:13;;;;;;;18.90;6.80;;;13.80;99.90;;;14.16;100.00;100488.78;4857740;29;20041;-71
2024/03/15 07:01:41;;;;;;;19.90;7.20;;;13.90;99.90;;;14.16;100.00;100499.41;4857667;29;20057;-71
2024/03/15 07:04:10;;;;;;;20.60;6.88;;;13.80;99.90;;;14.12;100.00;100492.41;4857651;29;20730;-72
2024/03/15 07:06:39;;;;;;;25.77;7.00;;;13.80;99.90;;;14.15;100.00;100498.53;4857529;29;20054;-71
2024/03/15 07:09:14;;;;;;;22.48;7.55;;;13.80;99.90;;;14.14;100.00;100498.56;4857573;29;20046;-73
2024/03/15 07:11:47;;;;;;;18.52;7.43;;;13.80;99.90;;;14.18;100.00;100518.88;4858851;29;20061;-72
2024/03/15 07:14:17;;;;;;;19.48;7.45;;;13.90;99.90;;;14.17;100.00;100511.78;4857789;29;20057;-72
2024/03/15 07:16:46;;;;;;;18.20;6.63;;;13.90;99.90;;;14.21;100.00;100510.78;4872887;29;20042;-71
2024/03/15 07:19:15;;;;;;;21.38;7.07;;;13.90;99.90;;;14.17;100.00;100506.47;4857302;29;20056;-71
2024/03/15 07:21:44;;;;;;;26.42;7.45;;;13.80;99.90;;;14.16;100.00;100516.25;4857366;29;20045;-71
2024/03/15 07:24:14;;;;;;;22.30;7.63;;;13.80;99.90;;;14.25;100.00;100500.06;4857671;29;20076;-72
2024/03/15 07:26:43;;;;;;;18.52;6.20;;;13.90;99.90;;;14.30;100.00;100515.94;4857365;29;20105;-71
2024/03/15 07:29:12;;;;;;;24.35;7.80;;;14.00;99.90;;;14.36;100.00;100499.81;4857286;29;20156;-72
2024/03/15 07:31:41;;;;;;;20.15;7.22;;;14.00;99.90;;;14.42;100.00;100518.28;4873105;29;20178;-73
2024/03/15 07:34:12;;;;;;;20.17;7.68;;;14.10;99.90;;;14.42;100.00;100519.16;4857108;29;20096;-69
2024/03/15 07:36:41;;;;;;;21.80;7.00;;;14.10;99.90;;;14.36;100.00;100513.97;4856857;29;20273;-70
2024/03/15 07:39:10;;;;;;;15.75;7.13;;;14.10;99.90;;;14.48;100.00;100518.13;4857068;29;20132;-69
2024/03/15 07:41:39;;;;;;;20.23;7.67;;;14.10;99.90;;;14.56;100.00;100515.25;4857374;29;20069;-68
2024/03/15 07:44:08;;;;;;;16.48;6.97;;;14.20;99.90;;;14.57;100.00;100515.22;4857569;29;20301;-73
2024/03/15 07:46:37;;;;;;;21.77;7.22;;;14.20;99.90;;;14.43;100.00;100514.72;4856978;29;20049;-72
2024/03/15 07:49:08;;;;;;;20.55;7.32;;;14.10;99.90;;;14.51;100.00;100519.84;4872753;29;20078;-71
2024/03/15 07:51:38;;;;;;;17.55;6.97;;;14.20;99.90;;;14.55;100.00;100517.06;4856945;29;20045;-74
2024/03/15 07:54:07;;;;;;;19.92;7.43;;;14.20;99.90;;;14.49;100.00;100511.91;4856892;29;20125;-76
2024/03/15 07:56:36;;;;;;;20.90;7.88;;;14.10;99.90;;;14.62;100.00;100500.00;4856836;29;20045;-76
2024/03/15 07:59:05;;;;;;;26.83;8.18;;;14.20;99.90;;;14.75;100.00;100521.84;4857337;29;20128;-74
2024/03/15 08:01:33;;;;;;;20.40;7.82;;;14.40;99.90;;;14.85;100.00;100520.66;4872559;29;20519;-77
2024/03/15 08:04:02;;;;;;;23.05;7.57;;;14.50;99.90;;;15.09;100.00;100531.53;4856816;29;20069;-73
2024/03/15 08:06:33;;;;;;;15.68;7.00;;;14.70;99.90;;;15.24;100.00;100520.44;4856988;29;20077;-72
2024/03/15 08:09:04;;;;;;;21.85;7.03;;;14.90;99.90;;;15.53;100.00;100524.94;4857327;29;20518;-71
2024/03/15 08:11:34;;;;;;;21.48;7.40;;;15.20;99.90;;;15.67;99.65;100532.50;4857324;29;20049;-74
2024/03/15 08:14:05;;;;;;;21.58;6.90;;;15.30;99.90;;;15.68;99.25;100504.94;4856707;29;20188;-73
2024/03/15 08:16:33;;;;;;;17.35;6.97;;;15.40;99.90;;;15.98;98.31;100527.97;4872765;29;20439;-72
2024/03/15 08:19:04;;;;;;;17.80;6.78;;;15.60;99.90;;;16.08;97.42;100518.75;4857099;29;20045;-73
2024/03/15 08:21:33;;;;;;;18.63;6.20;;;15.80;99.90;;;16.18;97.12;100520.22;4857052;29;20060;-71
2024/03/15 08:24:04;;;;;;;17.50;6.82;;;15.80;99.90;;;16.34;96.33;100526.75;4856655;29;20506;-74
2024/03/15 08:26:32;;;;;;;21.20;7.25;;;16.00;99.90;;;16.52;95.07;100531.53;4872495;29;20050;-74
2024/03/15 08:29:01;;;;;;;18.17;7.15;;;16.20;99.90;;;16.70;94.71;100525.56;4872417;29;20053;-71
2024/03/15 08:31:30;;;;;;;19.27;6.60;;;16.40;99.90;;;16.88;93.50;100527.56;4856632;29;20385;-70
2024/03/15 08:34:02;;;;;;;18.60;7.32;;;16.60;99.90;;;16.71;91.28;100526.41;4856673;29;20479;-75
2024/03/15 08:36:35;;;;;;;16.08;7.00;;;16.50;99.90;;;16.60;91.53;100540.16;4856708;29;20049;-74
2024/03/15 08:39:04;;;;;;;16.73;6.80;;;16.30;99.90;;;16.48;91.81;100534.31;4856914;29;20045;-76
2024/03/15 08:41:33;;;;;;;21.63;7.88;;;16.20;99.90;;;16.35;92.20;100535.66;4872395;29;20060;-74
2024/03/15 08:44:02;;;;;;;16.25;6.90;;;16.00;99.90;;;16.19;93.07;100552.19;4872563;29;20152;-75
2024/03/15 08:46:31;;;;;;;20.10;7.75;;;15.90;99.90;;;16.05;93.77;100542.84;4857095;29;20053;-73
2024/03/15 08:49:01;;;;;;;17.42;7.18;;;15.80;99.90;;;16.00;94.56;100555.47;4857534;29;20495;-73
2024/03/15 08:51:30;;;;;;;20.98;6.90;;;15.60;99.90;;;15.78;94.09;100546.38;4860253;29;20051;-74
2024/03/15 08:54:01;;;;;;;20.98;8.05;;;15.50;99.90;;;15.71;95.34;100555.50;4860092;29;20099;-74
2024/03/15 08:56:30;;;;;;;21.85;8.05;;;15.40;99.90;;;15.63;95.88;100557.53;4860060;29;20046;-77
2024/03/15 08:58:59;;;;;;;22.08;7.85;;;15.30;99.90;;;15.55;96.54;100524.88;4859990;29;20097;-73
2024/03/15 09:01:32;;;;;;;21.08;7.57;;;15.30;99.90;;;15.57;97.24;100545.25;4859900;29;20053;-73
2024/03/15 09:04:04;;;;;;;22.52;8.40;;;15.20;99.90;;;15.53;97.48;100554.25;4859848;29;20049;-73
2024/03/15 09:06:34;;;;;;;24.92;8.30;;;15.20;99.90;;;15.44;97.34;100543.88;4859548;29;20510;-71
2024/03/15 09:09:07;;;;;;;18.83;8.53;;;15.10;99.90;;;15.37;97.60;100547.59;4859780;29;20045;-73
2024/03/15 09:11:36;;;;;;;18.17;7.43;;;15.00;99.90;;;15.38;98.36;100557.34;4876369;29;20117;-73
2024/03/15 09:14:06;;;;;;;18.85;8.27;;;15.00;99.90;;;15.39;98.37;100553.75;4860224;29;20073;-73
2024/03/15 09:16:35;;;;;;;21.50;7.63;;;15.00;99.90;;;15.45;99.25;100547.44;4859630;29;20045;-72
2024/03/15 09:19:05;;;;;;;20.25;7.90;;;15.10;99.90;;;15.45;98.88;100550.09;4859736;29;20124;-73
2024/03/15 09:21:35;;;;;;;23.33;8.35;;;15.10;99.90;;;15.37;98.98;100540.47;4875358;29;20049;-77
2024/03/15 09:24:04;;;;;;;24.95;9.07;;;15.10;99.90;;;15.41;98.74;100543.06;4859893;29;20124;-72
2024/03/15 09:26:33;;;;;;;20.58;8.48;;;15.10;99.90;;;15.60;99.24;100554.97;4874834;29;20050;-72
2024/03/15 09:29:02;;;;;;;23.35;8.90;;;15.20;99.90;;;15.48;98.46;100534.88;4859375;29;20728;-72
2024/03/15 09:31:35;;;;;;;21.77;7.25;;;15.20;99.90;;;15.43;98.79;100542.13;4875434;29;20042;-75
2024/03/15 09:34:24;;;;;;;20.33;7.35;;;15.20;99.90;;;15.52;99.46;100554.31;4859695;29;20460;-72
2024/03/15 09:36:53;;;;;;;20.08;7.28;;;15.20;99.90;;;15.39;99.23;100553.75;4858929;29;20045;-73
2024/03/15 09:39:23;;;;;;;16.73;6.30;;;15.10;99.90;;;15.23;99.17;100571.13;4859232;29;20057;-72
2024/03/15 09:41:51;;;;;;;20.53;6.17;;;15.00;99.90;;;14.66;99.69;100464.41;4859238;29;20045;-72
2024/03/15 09:44:20;;;;;;;19.83;6.45;;;14.90;99.90;;;15.26;100.00;100563.03;4858927;29;20152;-72
2024/03/15 09:46:49;;;;;;;19.15;7.22;;;14.90;99.90;;;15.26;100.00;100550.56;4874952;29;20376;-72
2024/03/15 09:49:18;;;;;;;21.80;7.10;;;14.90;99.90;;;15.29;100.00;100541.63;4874964;29;20503;-72
2024/03/15 09:51:47;;;;;;;20.92;7.50;;;14.90;99.90;;;15.23;100.00;100541.81;4858852;29;20496;-73
2024/03/15 09:54:16;;;;;;;23.08;7.70;;;14.90;99.90;;;15.29;100.00;100529.16;4859032;29;20046;-73
2024/03/15 09:56:45;;;;;;;19.08;7.30;;;15.00;99.90;;;15.35;100.00;100554.75;4858682;29;20056;-69
2024/03/15 09:59:15;;;;;;;20.67;8.48;;;15.00;99.90;;;15.23;100.00;100534.66;4874912;29;20500;-72
2024/03/15 10:01:44;;;;;;;23.52;8.80;;;15.00;99.90;;;15.38;100.00;100544.91;4859058;29;20081;-73
2024/03/15 10:04:14;;;;;;;18.30;7.73;;;15.00;99.90;;;15.41;100.00;100545.72;4858906;29;20053;-72
2024/03/15 10:06:42;;;;;;;19.60;8.73;;;15.10;99.90;;;15.45;100.00;100550.94;4874398;29;20176;-72
2024/03/15 10:09:12;;;;;;;17.02;8.85;;;15.10;99.90;;;15.48;99.90;100550.00;4858797;29;20052;-74
2024/03/15 10:11:42;;;;;;;17.33;9.18;;;15.10;99.90;;;15.34;99.59;100547.69;4858750;29;20050;-71
2024/03/15 10:14:10;;;;;;;23.85;9.07;;;15.10;99.90;;;15.38;100.00;100557.34;4858483;29;20049;-72
2024/03/15 10:16:39;;;;;;;12.57;7.40;;;15.10;99.90;;;15.39;99.33;100545.75;4858353;29;20045;-72